This is the latest recevied weather packets stored in our database for station/object NT9M-13. If no packets are shown the sender has not sent any weather packets the latest 10 day(s).
| Time | Temp. | Humidity | Pressure | Rain* | Wind** | Luminosity | Snow |
|---|---|---|---|---|---|---|---|
| 1777522793 | 8.33° C | 92% | 1014.1 hPa | 0 mm | - | - | - |
| 1777520992 | 8.33° C | 91% | 1014 hPa | 0 mm | - | - | - |
| 1777519792 | 8.33° C | 90% | 1014 hPa | 0 mm | - | - | - |
| 1777516793 | 8.89° C | 90% | 1014 hPa | 0 mm | - | - | - |
| 1777513793 | 9.44° C | 90% | 1013.6 hPa | 0 mm | - | - | - |
| 1777504193 | 11.67° C | 83% | 1011.8 hPa | 0 mm | - | - | - |
| 1777487994 | 15° C | 83% | 1010.3 hPa | 0 mm | - | - | - |
| 1777482594 | 13.89° C | 90% | 1011.1 hPa | 0 mm | - | - | - |
| 1777476594 | 13.33° C | 90% | 1011.3 hPa | 0 mm | - | - | - |
| 1777474794 | 12.78° C | 92% | 1011.3 hPa | 0 mm | - | - | - |
| 1777473593 | 12.78° C | 92% | 1011.3 hPa | 0 mm | - | - | - |
| 1777471194 | 12.22° C | 94% | 1011.6 hPa | 0 mm | - | - | - |
| 1777470594 | 12.22° C | 93% | 1011.5 hPa | 0 mm | - | - | - |
| 1777466994 | 11.11° C | 96% | 1011.8 hPa | 0 mm | - | - | - |
| 1777465194 | 11.11° C | 96% | 1012 hPa | 0 mm | - | - | - |
| 1777463993 | 11.11° C | 96% | 1011.8 hPa | 0 mm | - | - | - |
| 1777459194 | 11.11° C | 96% | 1012 hPa | 1.02 mm | - | - | - |
| 1777456794 | 11.11° C | 96% | 1012 hPa | 1.27 mm | - | - | - |
| 1777455594 | 11.67° C | 95% | 1012.6 hPa | 0.25 mm | - | - | - |
| 1777454995 | 11.67° C | 95% | 1012.5 hPa | 0.25 mm | - | - | - |
| 1777452594 | 11.67° C | 94% | 1011.7 hPa | 0 mm | - | - | - |
| 1777451994 | 11.67° C | 94% | 1011.9 hPa | 0 mm | - | - | - |
| 1777450195 | 11.67° C | 94% | 1011.4 hPa | 0 mm | - | - | - |
| 1777448394 | 11.67° C | 94% | 1011.9 hPa | 0 mm | - | - | - |
| 1777444194 | 11.11° C | 94% | 1012.6 hPa | 0 mm | - | - | - |
* Rain latest hour (hover to see other rain measurements)
** Current wind speed in m/s (hover to see current wind gust speed)